Time;durP1;ratioP1;P1;durP2;ratioP2;P2;SDS_P1;SDS_P2;PMS_P1;PMS_P2;Temp;Humidity;BMP_temperature;BMP_pressure;BME280_temperature;BME280_humidity;BME280_pressure;Samples;Min_cycle;Max_cycle;Signal;HPM_P1;HPM_P2
2021/12/11 00:01:00;;;;;;;28.50;16.98;;;-1.60;99.90;;;;;;5077804;28;20139;-94
2021/12/11 00:03:30;;;;;;;27.63;15.60;;;-1.70;99.90;;;;;;5077775;28;20055;-94
2021/12/11 00:06:21;;;;;;;26.50;17.00;;;-1.70;99.90;;;;;;5078296;28;20459;-94
2021/12/11 00:08:52;;;;;;;32.10;21.08;;;-1.70;99.90;;;;;;5089931;28;20099;-93
2021/12/11 00:11:24;;;;;;;26.30;16.33;;;-1.60;99.90;;;;;;5092219;28;20056;-94
2021/12/11 00:13:57;;;;;;;25.57;16.03;;;-1.60;99.90;;;;;;5077610;28;20135;-94
2021/12/11 00:16:26;;;;;;;27.98;15.38;;;-1.50;99.90;;;;;;5077537;28;20083;-94
2021/12/11 00:19:02;;;;;;;23.23;13.82;;;-1.50;99.90;;;;;;5077058;28;20059;-94
2021/12/11 00:21:30;;;;;;;22.40;13.20;;;-1.40;99.90;;;;;;5077120;28;20067;-94
2021/12/11 00:24:26;;;;;;;20.35;12.35;;;-1.40;99.90;;;;;;5077338;28;20059;-93
2021/12/11 00:27:08;;;;;;;22.65;13.98;;;-1.30;99.90;;;;;;5077703;28;20488;-94
2021/12/11 00:29:36;;;;;;;20.63;11.95;;;-1.30;99.90;;;;;;5077311;28;20075;-94
2021/12/11 00:32:35;;;;;;;16.23;11.35;;;-1.30;99.90;;;;;;5077094;28;20543;-94
2021/12/11 00:35:15;;;;;;;19.80;10.90;;;-1.30;99.90;;;;;;5076798;28;20559;-93
2021/12/11 00:37:42;;;;;;;17.55;9.45;;;-1.30;99.90;;;;;;5076269;28;20411;-94
2021/12/11 00:40:23;;;;;;;15.90;10.48;;;-1.20;99.90;;;;;;5076748;28;20488;-94
2021/12/11 00:43:01;;;;;;;18.98;10.13;;;-1.20;99.90;;;;;;5076523;28;20444;-93
2021/12/11 00:45:34;;;;;;;16.13;10.05;;;-1.20;99.90;;;;;;5077169;28;20072;-93
2021/12/11 00:48:07;;;;;;;20.52;10.90;;;-1.20;99.90;;;;;;5076877;28;20547;-93
2021/12/11 00:50:40;;;;;;;14.73;10.40;;;-1.20;99.90;;;;;;5076925;28;20134;-94
2021/12/11 00:53:15;;;;;;;17.08;10.30;;;-1.20;99.90;;;;;;5076663;28;20116;-93
2021/12/11 00:55:52;;;;;;;15.07;10.05;;;-1.20;99.90;;;;;;5094858;28;20048;-93
2021/12/11 00:58:25;;;;;;;15.25;9.63;;;-1.10;99.90;;;;;;5077195;28;20135;-93
2021/12/11 01:00:56;;;;;;;14.35;9.52;;;-1.10;99.90;;;;;;5076991;28;20487;-93
2021/12/11 01:03:43;;;;;;;16.60;10.13;;;-1.10;99.90;;;;;;5077711;28;20055;-93
2021/12/11 01:06:21;;;;;;;16.33;10.68;;;-1.00;99.90;;;;;;5077124;28;20052;-94
2021/12/11 01:08:57;;;;;;;19.80;11.00;;;-1.10;99.90;;;;;;5076754;28;20044;-94
2021/12/11 01:11:33;;;;;;;15.57;10.48;;;-1.10;99.90;;;;;;5076906;28;20126;-94
2021/12/11 01:14:29;;;;;;;19.98;11.40;;;-1.00;99.90;;;;;;5076606;28;20542;-94
2021/12/11 01:17:08;;;;;;;19.48;11.27;;;-1.00;99.90;;;;;;5070780;28;20476;-94
2021/12/11 01:19:39;;;;;;;19.08;10.75;;;-0.90;99.90;;;;;;5076630;28;20111;-93
2021/12/11 01:22:20;;;;;;;18.35;11.23;;;-0.90;99.90;;;;;;5076275;28;20072;-93
2021/12/11 01:24:51;;;;;;;20.92;12.55;;;-0.90;99.90;;;;;;5090239;28;20071;-94
2021/12/11 01:27:24;;;;;;;22.42;13.70;;;-0.90;99.90;;;;;;5088520;28;20576;-94
2021/12/11 01:29:56;;;;;;;19.95;13.18;;;-1.00;99.90;;;;;;5076650;28;20056;-94
2021/12/11 01:32:25;;;;;;;24.45;13.75;;;-1.00;99.90;;;;;;5076436;28;20051;-94
2021/12/11 01:34:53;;;;;;;25.10;13.48;;;-1.00;99.90;;;;;;5076049;28;20555;-93
2021/12/11 01:37:20;;;;;;;21.20;13.07;;;-1.00;99.90;;;;;;5078710;28;20136;-93
2021/12/11 01:39:49;;;;;;;25.40;14.40;;;-0.90;99.90;;;;;;5081409;28;20131;-93
2021/12/11 01:42:27;;;;;;;23.30;12.90;;;-0.80;99.90;;;;;;5076448;28;20066;-94
2021/12/11 01:44:56;;;;;;;25.33;13.70;;;-0.80;99.90;;;;;;5075947;28;20052;-94
2021/12/11 01:47:35;;;;;;;24.20;14.52;;;-0.80;99.90;;;;;;5076126;28;20048;-94
2021/12/11 01:50:24;;;;;;;21.75;14.00;;;-0.80;99.90;;;;;;5075788;28;20135;-94
2021/12/11 01:53:05;;;;;;;21.13;12.73;;;-0.80;99.90;;;;;;5076036;28;20500;-93
2021/12/11 01:55:39;;;;;;;20.63;12.88;;;-0.80;99.90;;;;;;5076253;28;20076;-93
2021/12/11 01:58:11;;;;;;;22.17;13.15;;;-0.70;99.90;;;;;;5075918;28;20105;-94
2021/12/11 02:00:44;;;;;;;22.88;13.30;;;-0.70;99.90;;;;;;5075607;28;20127;-94
2021/12/11 02:03:15;;;;;;;20.20;13.90;;;-0.70;99.90;;;;;;5076059;28;20055;-93
2021/12/11 02:05:43;;;;;;;22.33;14.40;;;-0.80;99.90;;;;;;5076215;28;20062;-94
2021/12/11 02:08:15;;;;;;;22.27;14.07;;;-0.70;99.90;;;;;;5075837;28;20132;-94
2021/12/11 02:11:09;;;;;;;26.17;14.60;;;-0.70;99.90;;;;;;5076449;28;20127;-93
2021/12/11 02:13:48;;;;;;;;;;;-0.70;99.90;;;;;;5076448;28;20135;-94
2021/12/11 02:16:21;;;;;;;18.80;12.52;;;-0.80;99.90;;;;;;5075954;28;20291;-94
2021/12/11 02:18:52;;;;;;;20.33;12.95;;;-0.70;99.90;;;;;;5075513;28;20047;-94
2021/12/11 02:21:25;;;;;;;19.42;12.65;;;-0.60;99.90;;;;;;5075774;28;20079;-94
2021/12/11 02:24:03;;;;;;;21.48;12.30;;;-0.60;99.90;;;;;;5075802;28;20048;-94
2021/12/11 02:26:32;;;;;;;19.27;12.10;;;-0.60;99.90;;;;;;5075656;28;20136;-94
2021/12/11 02:29:11;;;;;;;17.45;11.23;;;-0.60;99.90;;;;;;5075471;28;20513;-94
2021/12/11 02:31:50;;;;;;;20.80;12.35;;;-0.50;99.90;;;;;;5075914;28;20515;-94
2021/12/11 02:34:45;;;;;;;22.73;12.90;;;-0.50;99.90;;;;;;5075659;28;20040;-93
2021/12/11 02:37:18;;;;;;;18.90;12.88;;;-0.50;99.90;;;;;;5065378;28;20076;-93
2021/12/11 02:40:00;;;;;;;24.35;13.10;;;-0.50;99.90;;;;;;5081971;28;20060;-93
2021/12/11 02:42:51;;;;;;;23.45;13.23;;;-0.50;99.90;;;;;;5090920;28;20052;-94
2021/12/11 02:45:39;;;;;;;20.15;13.10;;;-0.50;99.90;;;;;;5035028;28;20134;-94
2021/12/11 02:48:09;;;;;;;20.80;12.57;;;-0.60;99.90;;;;;;5075830;28;20048;-93
2021/12/11 02:50:41;;;;;;;18.90;12.18;;;-0.50;99.90;;;;;;5075551;28;20488;-93
2021/12/11 02:53:15;;;;;;;19.80;12.40;;;-0.50;99.90;;;;;;5075599;28;20166;-94
2021/12/11 02:56:23;;;;;;;17.65;12.45;;;-0.50;99.90;;;;;;5075908;28;20438;-94
2021/12/11 02:58:54;;;;;;;20.27;11.90;;;-0.50;99.90;;;;;;5075705;28;20131;-94
2021/12/11 03:01:29;;;;;;;19.35;11.68;;;-0.50;99.90;;;;;;5077468;28;20060;-94
2021/12/11 03:04:23;;;;;;;22.10;12.32;;;-0.50;99.90;;;;;;5079132;28;20127;-93
2021/12/11 03:06:52;;;;;;;24.02;13.07;;;-0.50;99.90;;;;;;5078982;28;20054;-93
2021/12/11 03:09:23;;;;;;;22.75;13.15;;;-0.60;99.90;;;;;;5078979;28;20147;-93
2021/12/11 03:11:51;;;;;;;21.90;11.95;;;-0.60;99.90;;;;;;5079074;28;20067;-94
2021/12/11 03:14:19;;;;;;;18.90;12.60;;;-0.50;99.90;;;;;;5078907;28;20135;-93
2021/12/11 03:16:50;;;;;;;21.00;12.70;;;-0.50;99.90;;;;;;5078743;28;20127;-94
2021/12/11 03:19:21;;;;;;;19.08;12.45;;;-0.50;99.90;;;;;;5078759;28;20112;-93
2021/12/11 03:21:49;;;;;;;20.05;11.90;;;-0.50;99.90;;;;;;5078572;28;20499;-93
2021/12/11 03:24:21;;;;;;;23.63;12.90;;;-0.50;99.90;;;;;;5079787;28;20063;-93
2021/12/11 03:26:51;;;;;;;16.77;11.77;;;-0.50;99.90;;;;;;5078676;28;20326;-93
2021/12/11 03:29:18;;;;;;;18.15;12.13;;;-0.50;99.90;;;;;;5078536;28;20470;-93
2021/12/11 03:31:45;;;;;;;16.33;11.07;;;-0.50;99.90;;;;;;5078702;28;20062;-93
2021/12/11 03:34:18;;;;;;;19.40;11.68;;;-0.50;99.90;;;;;;5078194;28;20048;-94
2021/12/11 03:36:46;;;;;;;17.75;11.18;;;-0.50;99.90;;;;;;5078417;28;20078;-94
2021/12/11 03:39:24;;;;;;;16.60;11.65;;;-0.60;99.90;;;;;;5077936;28;20927;-94
2021/12/11 03:41:53;;;;;;;17.90;11.70;;;-0.60;99.90;;;;;;5078432;28;20673;-93
2021/12/11 03:44:21;;;;;;;19.00;12.35;;;-0.60;99.90;;;;;;5078216;28;20064;-94
2021/12/11 03:46:51;;;;;;;15.30;11.80;;;-0.60;99.90;;;;;;5078024;28;20131;-93
2021/12/11 03:49:22;;;;;;;18.27;12.27;;;-0.60;99.90;;;;;;5078269;28;20048;-93
2021/12/11 03:51:51;;;;;;;17.80;11.90;;;-0.70;99.90;;;;;;5078183;28;20044;-94
2021/12/11 03:54:23;;;;;;;21.27;11.45;;;-0.60;99.90;;;;;;5078856;28;20075;-94
2021/12/11 03:56:52;;;;;;;15.98;11.27;;;-0.70;99.90;;;;;;5094772;28;20111;-94
2021/12/11 03:59:19;;;;;;;19.52;12.02;;;-0.70;99.90;;;;;;5084374;28;20102;-93
2021/12/11 04:01:56;;;;;;;17.98;11.73;;;-0.60;99.90;;;;;;5078194;28;20082;-94
2021/12/11 04:04:30;;;;;;;16.92;11.82;;;-0.60;99.90;;;;;;5077791;28;20052;-93
2021/12/11 04:06:57;;;;;;;17.30;11.93;;;-0.60;99.90;;;;;;5077692;28;20051;-93
2021/12/11 04:09:25;;;;;;;16.77;12.05;;;-0.60;99.90;;;;;;5077644;28;20132;-94
2021/12/11 04:11:53;;;;;;;18.50;11.02;;;-0.50;99.90;;;;;;5077460;28;20460;-94
2021/12/11 04:14:26;;;;;;;20.02;12.25;;;-0.50;99.90;;;;;;5077743;28;20067;-94
2021/12/11 04:16:53;;;;;;;19.10;11.15;;;-0.70;99.90;;;;;;5077521;28;20135;-93
2021/12/11 04:19:21;;;;;;;16.10;11.07;;;-0.80;99.90;;;;;;5077177;28;20052;-94
2021/12/11 04:21:49;;;;;;;17.30;11.25;;;-0.80;99.90;;;;;;5077166;28;20060;-94
2021/12/11 04:24:20;;;;;;;19.35;11.00;;;-0.80;99.90;;;;;;5077199;28;20044;-94
2021/12/11 04:26:49;;;;;;;17.05;10.63;;;-0.90;99.90;;;;;;5077018;28;20048;-94
2021/12/11 04:29:16;;;;;;;17.38;10.25;;;-0.90;99.90;;;;;;5076870;28;20054;-93
2021/12/11 04:31:46;;;;;;;15.85;10.07;;;-1.00;99.90;;;;;;5076889;28;20067;-94
2021/12/11 04:34:17;;;;;;;19.52;9.90;;;-1.00;99.90;;;;;;5077083;28;20122;-94
2021/12/11 04:36:49;;;;;;;17.35;10.45;;;-1.10;99.90;;;;;;5077284;28;20052;-94
2021/12/11 04:39:18;;;;;;;14.95;10.48;;;-1.20;99.90;;;;;;5077163;28;20127;-93
2021/12/11 04:41:55;;;;;;;18.13;10.60;;;-1.20;99.90;;;;;;5076345;28;20072;-94
2021/12/11 04:44:38;;;;;;;15.88;10.30;;;-1.30;99.90;;;;;;5076548;28;20068;-94
2021/12/11 04:47:20;;;;;;;14.67;10.57;;;-1.40;99.90;;;;;;5076897;28;20075;-94
2021/12/11 04:49:55;;;;;;;16.23;9.77;;;-1.40;99.90;;;;;;5077063;28;20097;-94
2021/12/11 04:53:10;;;;;;;17.23;9.25;;;-1.60;99.90;;;;;;5076992;28;20058;-94
2021/12/11 04:55:29;;;;;;;18.35;9.95;;;-1.60;99.90;;;;;;5086427;28;20507;-94
2021/12/11 05:11:38;;;;;;;15.77;10.27;;;-2.10;99.90;;;;;;5107204;28;20075;-94
2021/12/11 05:14:10;;;;;;;14.70;10.50;;;-2.10;99.90;;;;;;5088780;28;20044;-94
2021/12/11 05:16:37;;;;;;;19.60;11.25;;;-2.20;99.90;;;;;;5076872;28;20135;-94
2021/12/11 05:19:04;;;;;;;19.70;10.65;;;-2.30;99.90;;;;;;5076541;28;20135;-94
2021/12/11 05:21:33;;;;;;;16.30;10.05;;;-2.30;99.90;;;;;;5076171;28;20135;-94
2021/12/11 05:24:01;;;;;;;18.17;10.02;;;-2.30;99.90;;;;;;5076011;28;20071;-94
2021/12/11 05:26:28;;;;;;;16.67;9.68;;;-2.30;99.90;;;;;;5076691;28;20134;-94
2021/12/11 05:28:55;;;;;;;18.02;10.50;;;-2.20;99.90;;;;;;5076582;28;20067;-93
2021/12/11 05:31:22;;;;;;;17.77;10.50;;;-2.00;99.90;;;;;;5076442;28;20503;-94
2021/12/11 05:33:49;;;;;;;20.50;12.60;;;-1.90;99.90;;;;;;5076454;28;20044;-95
2021/12/11 05:36:18;;;;;;;27.30;12.30;;;-1.90;99.90;;;;;;5076449;28;20134;-94
2021/12/11 05:38:48;;;;;;;24.52;12.23;;;-1.70;99.90;;;;;;5081592;28;20135;-93
2021/12/11 05:41:19;;;;;;;23.92;12.20;;;-1.70;99.90;;;;;;5076106;28;20566;-94
2021/12/11 05:43:47;;;;;;;19.25;11.13;;;-1.80;99.90;;;;;;5076099;28;20048;-94
2021/12/11 05:46:16;;;;;;;17.73;10.85;;;-1.80;99.90;;;;;;5076248;28;20525;-94
2021/12/11 05:48:47;;;;;;;16.55;10.10;;;-1.80;99.90;;;;;;5075846;28;20097;-94
2021/12/11 05:51:19;;;;;;;19.17;11.60;;;-1.70;99.90;;;;;;5076081;28;20142;-94
2021/12/11 05:53:49;;;;;;;14.83;9.83;;;-1.70;99.90;;;;;;5076292;28;20139;-94
2021/12/11 05:56:17;;;;;;;19.55;10.95;;;-1.70;99.90;;;;;;5075870;28;20868;-94
2021/12/11 06:01:25;;;;;;;15.73;9.90;;;-1.80;99.90;;;;;;5093428;28;20082;-95
2021/12/11 06:03:59;;;;;;;17.33;10.55;;;-1.80;99.90;;;;;;5108575;28;20056;-94
2021/12/11 06:06:26;;;;;;;15.38;9.27;;;-1.80;99.90;;;;;;5075553;28;20511;-94
2021/12/11 06:08:53;;;;;;;20.10;10.88;;;-1.80;99.90;;;;;;5075831;28;20078;-94
2021/12/11 06:11:20;;;;;;;16.23;9.40;;;-1.80;99.90;;;;;;5075896;28;20079;-94
2021/12/11 06:13:47;;;;;;;17.00;10.73;;;-1.90;99.90;;;;;;5075684;28;20052;-95
2021/12/11 06:16:15;;;;;;;19.63;10.95;;;-1.80;99.90;;;;;;5075544;28;20068;-94
2021/12/11 06:18:45;;;;;;;18.83;10.70;;;-1.80;99.90;;;;;;5075683;28;20119;-94
2021/12/11 06:21:13;;;;;;;17.33;9.20;;;-1.80;99.90;;;;;;5075041;28;20131;-94
2021/12/11 06:23:41;;;;;;;13.18;9.45;;;-1.90;99.90;;;;;;5075755;28;20068;-94
2021/12/11 06:26:09;;;;;;;13.57;8.98;;;-2.00;99.90;;;;;;5077153;28;20060;-94
2021/12/11 06:28:44;;;;;;;19.38;9.50;;;-2.10;99.90;;;;;;5097900;28;20059;-94
2021/12/11 06:31:18;;;;;;;16.20;9.30;;;-2.30;99.90;;;;;;5083353;28;20048;-95
2021/12/11 06:33:50;;;;;;;15.27;9.52;;;-2.40;99.90;;;;;;5075842;28;20070;-95
2021/12/11 06:36:20;;;;;;;18.63;9.55;;;-2.40;99.90;;;;;;5076975;28;20063;-95
2021/12/11 06:38:49;;;;;;;14.63;9.38;;;-2.50;99.90;;;;;;5112689;28;20054;-95
2021/12/11 06:41:20;;;;;;;16.38;9.77;;;-2.50;99.90;;;;;;5078979;28;20052;-95
2021/12/11 06:43:49;;;;;;;13.80;8.88;;;-2.50;99.90;;;;;;5079495;28;20064;-94
2021/12/11 06:46:17;;;;;;;15.50;9.88;;;-2.50;99.90;;;;;;5079643;28;20101;-95
2021/12/11 06:48:44;;;;;;;16.15;10.10;;;-2.50;99.90;;;;;;5079724;28;20071;-95
2021/12/11 06:51:11;;;;;;;21.70;11.80;;;-2.40;99.90;;;;;;5079159;28;20044;-95
2021/12/11 06:53:42;;;;;;;19.33;11.40;;;-2.40;99.90;;;;;;5079068;28;20127;-95
2021/12/11 06:56:13;;;;;;;27.07;16.73;;;-2.40;99.90;;;;;;5079576;28;20495;-94
2021/12/11 06:58:40;;;;;;;30.58;17.23;;;-2.40;99.90;;;;;;5079099;28;20398;-95
2021/12/11 07:01:09;;;;;;;16.83;9.88;;;-2.50;99.90;;;;;;5078748;28;20052;-95
2021/12/11 07:03:38;;;;;;;15.02;8.95;;;-2.50;99.90;;;;;;5079563;28;20052;-94
2021/12/11 07:06:06;;;;;;;16.02;9.60;;;-2.50;99.90;;;;;;5079385;28;20512;-95
2021/12/11 07:08:35;;;;;;;16.95;9.40;;;-2.60;99.90;;;;;;5079632;28;20052;-95
2021/12/11 07:11:03;;;;;;;17.23;9.77;;;-2.50;99.90;;;;;;5078988;28;20075;-95
2021/12/11 07:13:30;;;;;;;20.40;11.25;;;-2.50;99.90;;;;;;5078935;28;20051;-95
2021/12/11 07:15:57;;;;;;;21.73;13.77;;;-2.50;99.90;;;;;;5079293;28;20060;-95
2021/12/11 07:18:25;;;;;;;25.65;15.15;;;-2.50;99.90;;;;;;5079035;28;20054;-95
2021/12/11 07:20:52;;;;;;;24.40;15.60;;;-2.50;99.90;;;;;;5078913;28;20120;-95
2021/12/11 07:23:19;;;;;;;36.92;21.02;;;-2.50;99.90;;;;;;5082152;28;20130;-95
2021/12/11 07:25:58;;;;;;;31.98;19.27;;;-2.40;99.90;;;;;;5079621;28;20068;-95
2021/12/11 07:28:25;;;;;;;36.50;19.52;;;-2.50;99.90;;;;;;5079072;28;20131;-95
2021/12/11 07:30:55;;;;;;;39.75;20.25;;;-2.40;99.90;;;;;;5080363;28;20576;-94
2021/12/11 07:33:22;;;;;;;39.47;19.05;;;-2.30;99.90;;;;;;5080492;28;20052;-95
2021/12/11 07:35:50;;;;;;;45.08;23.50;;;-2.30;99.90;;;;;;5079043;28;20111;-95
2021/12/11 07:38:17;;;;;;;44.60;26.08;;;-2.30;99.90;;;;;;5078922;28;20135;-95
2021/12/11 07:40:49;;;;;;;44.25;22.25;;;-2.20;99.90;;;;;;5078809;28;20067;-95
2021/12/11 07:43:18;;;;;;;34.17;18.80;;;-2.10;99.90;;;;;;5079127;28;20044;-95
2021/12/11 07:45:46;;;;;;;27.88;16.10;;;-2.00;99.90;;;;;;5081120;28;20139;-95
2021/12/11 07:48:13;;;;;;;26.73;18.15;;;-1.90;99.90;;;;;;5079410;28;20131;-95
2021/12/11 07:50:40;;;;;;;32.10;14.93;;;-1.80;99.90;;;;;;5078001;28;20082;-95
2021/12/11 07:53:07;;;;;;;35.30;19.13;;;-1.70;99.90;;;;;;5078087;28;20112;-95
2021/12/11 07:55:35;;;;;;;38.20;18.35;;;-1.50;99.90;;;;;;5077977;28;20058;-95
2021/12/11 07:58:04;;;;;;;33.50;19.45;;;-1.50;99.90;;;;;;5077783;28;20130;-95
2021/12/11 08:00:31;;;;;;;24.30;15.32;;;-1.50;99.90;;;;;;5077899;28;20143;-95
2021/12/11 08:02:58;;;;;;;34.58;16.95;;;-1.40;99.90;;;;;;5077705;28;20492;-95
2021/12/11 08:05:27;;;;;;;32.80;18.73;;;-1.30;99.90;;;;;;5077996;28;20044;-95
2021/12/11 08:07:58;;;;;;;36.33;22.15;;;-1.20;99.90;;;;;;5077621;28;20155;-95
2021/12/11 08:10:26;;;;;;;37.05;18.65;;;-1.10;99.90;;;;;;5077553;28;20048;-94
2021/12/11 08:12:53;;;;;;;45.25;22.05;;;-1.00;99.90;;;;;;5069241;28;20048;-95
2021/12/11 08:15:20;;;;;;;35.63;19.23;;;-1.00;99.90;;;;;;5066091;28;20154;-95
2021/12/11 08:17:54;;;;;;;32.35;18.42;;;-0.90;99.90;;;;;;5065984;28;20076;-95
2021/12/11 08:20:24;;;;;;;40.40;20.08;;;-0.90;99.90;;;;;;5057034;28;20068;-95
2021/12/11 08:22:52;;;;;;;37.47;19.83;;;-0.80;99.90;;;;;;5057197;28;20056;-95
2021/12/11 08:25:21;;;;;;;53.72;28.27;;;-0.80;99.90;;;;;;5057236;28;20461;-95
2021/12/11 08:27:48;;;;;;;43.13;22.98;;;-0.70;99.90;;;;;;5057374;28;20135;-95
2021/12/11 08:30:15;;;;;;;37.58;19.48;;;-0.60;99.90;;;;;;5057007;28;20135;-92
2021/12/11 08:32:43;;;;;;;27.20;15.75;;;-0.60;99.90;;;;;;5056922;28;20151;-95
2021/12/11 08:35:11;;;;;;;27.52;15.05;;;-0.70;99.90;;;;;;5057097;28;20416;-95
2021/12/11 08:37:41;;;;;;;23.38;15.02;;;-0.70;99.90;;;;;;5056860;28;20511;-95
2021/12/11 08:40:12;;;;;;;26.17;16.50;;;-0.50;99.90;;;;;;5056870;28;20121;-94
2021/12/11 08:42:39;;;;;;;31.13;18.48;;;-0.40;99.90;;;;;;5056363;28;20052;-93
2021/12/11 08:45:11;;;;;;;27.65;16.73;;;-0.40;99.90;;;;;;5056740;28;20052;-95
2021/12/11 08:47:40;;;;;;;23.13;15.20;;;-0.30;99.90;;;;;;5056687;28;20048;-94
2021/12/11 08:50:13;;;;;;;20.92;12.25;;;-0.30;99.90;;;;;;5056412;28;20075;-94
2021/12/11 08:52:43;;;;;;;17.77;11.32;;;-0.30;99.90;;;;;;5056853;28;20054;-94
2021/12/11 08:55:16;;;;;;;;;;;-0.20;99.90;;;;;;5057634;28;20110;-94
2021/12/11 08:57:43;;;;;;;21.45;13.63;;;-0.20;99.90;;;;;;5056629;28;20022;-94
2021/12/11 09:00:28;;;;;;;21.60;14.50;;;-0.20;99.90;;;;;;5057858;28;20109;-94
2021/12/11 09:03:05;;;;;;;22.10;13.25;;;-0.10;99.90;;;;;;5065574;28;20062;-94
2021/12/11 09:05:46;;;;;;;20.40;13.70;;;0.00;99.90;;;;;;5057166;28;20049;-94
2021/12/11 09:08:17;;;;;;;23.63;14.75;;;0.00;99.90;;;;;;5056709;28;20087;-94
2021/12/11 09:11:13;;;;;;;20.00;13.95;;;0.10;99.90;;;;;;5061530;28;20123;-93
2021/12/11 09:13:45;;;;;;;22.63;13.32;;;0.20;99.90;;;;;;5039606;28;20412;-94
2021/12/11 09:16:26;;;;;;;21.83;15.30;;;0.30;99.90;;;;;;5056973;28;20048;-93
2021/12/11 09:19:05;;;;;;;20.25;13.80;;;0.40;99.90;;;;;;5056520;28;20052;-94
2021/12/11 09:21:49;;;;;;;21.65;14.38;;;0.40;99.90;;;;;;5056259;28;20083;-94
2021/12/11 09:24:26;;;;;;;24.50;14.93;;;0.50;99.90;;;;;;5056115;28;20112;-93
2021/12/11 09:27:01;;;;;;;24.52;15.57;;;0.40;99.90;;;;;;5056885;28;20671;-94
2021/12/11 09:29:35;;;;;;;25.17;15.70;;;0.50;99.90;;;;;;5056523;28;20136;-93
2021/12/11 09:32:22;;;;;;;27.70;17.25;;;0.60;99.90;;;;;;5056568;28;20135;-93
2021/12/11 09:34:58;;;;;;;24.60;16.15;;;0.50;99.90;;;;;;5055969;28;20155;-93
2021/12/11 09:37:26;;;;;;;24.33;15.65;;;0.40;99.90;;;;;;5058602;28;20474;-94
2021/12/11 09:40:01;;;;;;;27.67;16.45;;;0.60;99.90;;;;;;5063161;28;20529;-93
2021/12/11 09:42:27;;;;;;;29.08;17.63;;;0.50;99.90;;;;;;5070326;28;20131;-94
2021/12/11 09:45:00;;;;;;;23.25;15.18;;;0.60;99.90;;;;;;5076165;28;20117;-94
2021/12/11 09:47:37;;;;;;;27.90;17.98;;;0.50;99.90;;;;;;5075368;28;20139;-93
2021/12/11 09:50:09;;;;;;;23.65;15.15;;;0.60;99.90;;;;;;5076195;28;20048;-93
2021/12/11 09:52:40;;;;;;;30.30;21.27;;;0.70;99.90;;;;;;5075894;28;20402;-93
2021/12/11 09:55:12;;;;;;;25.05;15.30;;;0.90;99.90;;;;;;5075603;28;20048;-93
2021/12/11 09:57:46;;;;;;;21.98;15.38;;;1.00;99.90;;;;;;5075718;28;20143;-93
2021/12/11 10:00:20;;;;;;;27.40;16.30;;;1.20;99.90;;;;;;5075994;28;20075;-93
2021/12/11 10:02:48;;;;;;;24.20;15.95;;;1.40;99.90;;;;;;5075403;28;20130;-94
2021/12/11 10:05:35;;;;;;;24.13;13.55;;;1.70;99.90;;;;;;5076165;28;20161;-93
2021/12/11 10:08:37;;;;;;;24.67;15.20;;;1.70;99.90;;;;;;5076009;28;20067;-91
2021/12/11 10:11:18;;;;;;;20.27;14.45;;;1.80;99.90;;;;;;5078814;28;20404;-94
2021/12/11 10:13:56;;;;;;;24.13;16.30;;;1.80;99.90;;;;;;5079318;28;20048;-94
2021/12/11 10:16:30;;;;;;;19.88;13.57;;;1.80;99.90;;;;;;5080621;28;20452;-93
2021/12/11 10:18:58;;;;;;;23.23;15.48;;;2.00;99.90;;;;;;5081351;28;20056;-94
2021/12/11 10:21:32;;;;;;;27.70;16.90;;;2.10;99.90;;;;;;5081981;28;20056;-94
2021/12/11 10:24:04;;;;;;;23.75;15.50;;;2.30;99.90;;;;;;5081929;28;20076;-94
2021/12/11 10:26:32;;;;;;;19.77;14.23;;;2.40;99.90;;;;;;5081294;28;20108;-94
2021/12/11 10:29:02;;;;;;;22.48;14.75;;;2.30;99.90;;;;;;5079392;28;20056;-94
2021/12/11 10:31:38;;;;;;;18.42;14.05;;;2.40;99.90;;;;;;5079586;28;20079;-93
2021/12/11 10:34:10;;;;;;;20.00;14.35;;;2.50;99.90;;;;;;5079350;28;20056;-94
2021/12/11 10:36:42;;;;;;;20.20;14.38;;;2.60;99.90;;;;;;5079584;28;20060;-93
2021/12/11 10:39:14;;;;;;;23.67;15.88;;;2.60;99.90;;;;;;5078956;28;20139;-94
2021/12/11 10:41:44;;;;;;;19.95;13.35;;;2.70;99.90;;;;;;5079594;28;20056;-93
2021/12/11 10:44:21;;;;;;;23.25;14.85;;;2.70;99.90;;;;;;5079011;28;20044;-94
2021/12/11 10:46:58;;;;;;;19.88;14.70;;;2.60;99.90;;;;;;5078916;28;20086;-93
2021/12/11 10:49:26;;;;;;;16.60;12.07;;;2.60;99.90;;;;;;5079311;28;20048;-93
2021/12/11 10:52:00;;;;;;;19.70;13.90;;;2.80;99.90;;;;;;5078170;28;20587;-93
2021/12/11 10:54:27;;;;;;;;;;;3.10;99.90;;;;;;5079507;28;20048;-93
2021/12/11 10:56:54;;;;;;;17.63;11.25;;;3.20;99.90;;;;;;5079084;28;19931;-93
2021/12/11 10:59:29;;;;;;;21.38;12.50;;;3.30;99.90;;;;;;5079113;28;20503;-93
2021/12/11 11:02:18;;;;;;;18.85;12.93;;;3.40;99.90;;;;;;5078976;28;20502;-93
2021/12/11 11:04:51;;;;;;;19.38;13.18;;;3.60;99.90;;;;;;5078940;28;20063;-93
2021/12/11 11:07:20;;;;;;;15.70;11.90;;;3.60;99.90;;;;;;5079066;28;20056;-93
2021/12/11 11:09:49;;;;;;;21.00;12.57;;;4.00;99.90;;;;;;5079076;28;20048;-93
2021/12/11 11:12:20;;;;;;;17.77;12.57;;;4.20;99.90;;;;;;5078732;28;20054;-93
2021/12/11 11:14:49;;;;;;;16.40;10.25;;;4.10;99.90;;;;;;5078522;28;20091;-93
2021/12/11 11:17:18;;;;;;;19.45;11.20;;;4.20;99.90;;;;;;5078640;28;20139;-93
2021/12/11 11:19:47;;;;;;;17.67;10.20;;;4.40;99.90;;;;;;5078744;28;20054;-93
2021/12/11 11:22:21;;;;;;;14.18;9.40;;;4.50;99.90;;;;;;5077452;28;20492;-92
2021/12/11 11:24:56;;;;;;;15.90;10.15;;;4.60;99.90;;;;;;5078837;28;20044;-92
2021/12/11 11:27:23;;;;;;;16.42;9.25;;;4.60;99.90;;;;;;5078609;28;20051;-92
2021/12/11 11:29:50;;;;;;;22.50;16.67;;;4.60;99.90;;;;;;5078131;28;20567;-93
2021/12/11 11:32:31;;;;;;;13.75;9.70;;;4.50;99.90;;;;;;5081978;28;20112;-92
2021/12/11 11:35:02;;;;;;;12.68;9.30;;;4.30;99.90;;;;;;5087609;28;20055;-93
2021/12/11 11:37:47;;;;;;;15.15;9.50;;;4.20;99.90;;;;;;5080694;28;20537;-92
2021/12/11 11:40:21;;;;;;;13.35;9.75;;;4.10;99.90;;;;;;5078339;28;20518;-92
2021/12/11 11:42:48;;;;;;;24.15;16.45;;;4.00;99.90;;;;;;5078162;28;20135;-92
2021/12/11 11:45:14;;;;;;;19.42;10.15;;;3.60;99.90;;;;;;5078160;28;20048;-92
2021/12/11 11:47:44;;;;;;;16.60;10.10;;;3.40;99.90;;;;;;5078080;28;20411;-92
2021/12/11 11:50:14;;;;;;;15.07;10.65;;;3.20;99.90;;;;;;5078201;28;20130;-92
2021/12/11 11:52:41;;;;;;;16.48;10.63;;;2.90;99.90;;;;;;5079608;28;20056;-91
2021/12/11 11:55:15;;;;;;;20.92;10.05;;;2.70;99.90;;;;;;5079268;28;20058;-93
2021/12/11 11:57:49;;;;;;;14.55;10.07;;;2.60;99.90;;;;;;5077835;28;20054;-92
2021/12/11 12:00:24;;;;;;;13.98;9.65;;;2.50;99.90;;;;;;5077904;28;20040;-91
2021/12/11 12:02:51;;;;;;;20.52;13.57;;;2.40;99.90;;;;;;5077658;28;20127;-92
2021/12/11 12:05:19;;;;;;;14.07;10.43;;;2.30;99.90;;;;;;5078180;28;20075;-92
2021/12/11 12:07:46;;;;;;;15.73;12.50;;;2.20;99.90;;;;;;5077969;28;20062;-91
2021/12/11 12:10:17;;;;;;;12.40;10.32;;;2.20;99.90;;;;;;5078162;28;20126;-92
2021/12/11 12:12:45;;;;;;;16.63;9.88;;;2.20;99.90;;;;;;5077954;28;20139;-92
2021/12/11 12:15:17;;;;;;;11.25;8.60;;;2.40;99.90;;;;;;5077881;28;20496;-92
2021/12/11 12:17:44;;;;;;;13.20;9.07;;;2.60;99.90;;;;;;5077973;28;20502;-92
2021/12/11 12:20:15;;;;;;;11.93;8.40;;;2.90;99.90;;;;;;5077880;28;20040;-92
2021/12/11 12:22:44;;;;;;;10.18;7.40;;;3.20;99.90;;;;;;5077490;28;20140;-92
2021/12/11 12:25:12;;;;;;;9.40;6.70;;;3.50;99.90;;;;;;5060942;28;20058;-92
2021/12/11 12:27:42;;;;;;;9.88;6.72;;;3.60;99.90;;;;;;5077579;28;20048;-92
2021/12/11 12:30:22;;;;;;;8.63;7.18;;;3.90;99.90;;;;;;5077614;28;20058;-92
2021/12/11 12:32:54;;;;;;;9.32;6.40;;;4.10;99.90;;;;;;5073342;28;20135;-92
2021/12/11 12:35:21;;;;;;;9.48;7.18;;;4.30;99.90;;;;;;5066921;28;20047;-92
2021/12/11 12:37:50;;;;;;;6.38;5.78;;;4.50;99.90;;;;;;5065929;28;20045;-91
2021/12/11 12:40:28;;;;;;;9.07;7.45;;;4.40;99.90;;;;;;5074798;28;20407;-92
2021/12/11 12:43:06;;;;;;;7.95;5.35;;;4.50;99.90;;;;;;5076955;28;20062;-92
2021/12/11 12:45:40;;;;;;;7.53;5.57;;;4.50;99.90;;;;;;5077450;28;20054;-92
2021/12/11 12:48:13;;;;;;;5.60;5.10;;;4.40;99.90;;;;;;5077870;28;20055;-91
2021/12/11 12:50:49;;;;;;;7.88;4.80;;;4.30;99.90;;;;;;5078949;28;20506;-92
2021/12/11 12:53:16;;;;;;;12.18;6.50;;;4.10;99.90;;;;;;5076990;28;20048;-92
2021/12/11 12:55:49;;;;;;;9.88;6.38;;;3.80;99.90;;;;;;5076755;28;20054;-92
2021/12/11 12:58:31;;;;;;;20.77;11.57;;;3.60;99.90;;;;;;5076831;28;20044;-91
2021/12/11 13:01:06;;;;;;;15.57;8.50;;;3.30;99.90;;;;;;5076334;28;20325;-91
2021/12/11 13:03:36;;;;;;;11.90;8.18;;;3.10;99.90;;;;;;5076779;28;20109;-91
2021/12/11 13:06:15;;;;;;;10.98;6.43;;;2.90;99.90;;;;;;5076876;28;20395;-91
2021/12/11 13:08:49;;;;;;;8.95;7.15;;;2.80;99.90;;;;;;5077269;28;20502;-91
2021/12/11 13:11:21;;;;;;;14.85;9.32;;;2.70;99.90;;;;;;5077271;28;20047;-91
2021/12/11 13:13:50;;;;;;;13.07;7.82;;;2.70;99.90;;;;;;5071407;28;20067;-91
2021/12/11 13:16:23;;;;;;;14.23;8.48;;;2.80;99.90;;;;;;5065456;28;20131;-91